Flight Number: EUR3036 Duration: 11:00
Departure: Helsinki Vantaa (EFHK) at 08:00 Distance: 4494 Nm
Arrival: Miami Int'l (KMIA) at 19:00 Equipment: A340

Weather Information
Helsinki-Vantaa, Finland (EFHK) 60-19N 024-58E 56M May 20, 2018 - 09:50 AM EDT / 2018.05.20 1350 UTC
Wind: from the S (170 degrees) at 14 MPH (12 KT):0
Visibility: greater than 7 mile(s):0 Temperature: 69 F (21 C) Dew Point: 37 F (3 C) Relative Humidity: 30% Pressure (altimeter): 30.27 in. Hg (1025 hPa)
ob: EFHK 201350Z 17012KT CAVOK 21/03 Q1025 NOSIG cycle: 14
Sunrise: 01:33 Sunset: 18:59 (UTC)

MIAMI INTERNATIONAL AIRPORT , FL, United States (KMIA) 25-47N 080-19W 8M May 20, 2018 - 09:53 AM EDT / 2018.05.20 1353 UTC
Wind: from the E (090 degrees) at 8 MPH (7 KT):0
Visibility: 7 mile(s):0
Sky conditions: overcast Precipitation last hour: A trace Temperature: 77.0 F (25.0 C) Dew Point: 73.0 F (22.8 C) Relative Humidity: 87% Pressure (altimeter): 30.08 in. Hg (1018 hPa)
ob: KMIA 201353Z 09007KT 7SM SCT020 BKN040 OVC090 25/23 A3008 RMK AO2 RAE04B30E45 SLP186 P0000 T02500228 cycle: 14
Sunrise: 10:35 Sunset: 23:59 (UTC)

TAF:2018/05/20 12:58 TAF KMIA 201155Z 2012/2118 13008KT P6SM -SHRA SCT015 BKN025 OVC050 FM201400 13012KT P6SM SHRA SCT020 BKN035 OVC100 TEMPO 2014/2018 4SM SHRA BKN030 FM210000 11008KT P6SM VCSH SCT020 BKN040 OVC100 FM211300 12012KT P6SM VCSH SCT025 BKN035

This route has never been flown.

Route map